createdAt,value
2023-04-16T00:00:33.656Z,5.7
2023-04-16T00:06:17.824Z,6.2
2023-04-16T00:12:04.042Z,4.9
2023-04-16T00:17:48.688Z,5.3
2023-04-16T00:23:32.513Z,7.4
2023-04-16T00:29:16.457Z,7.9
2023-04-16T00:35:00.348Z,6.1
2023-04-16T00:40:44.476Z,6.4
2023-04-16T00:46:29.442Z,5.1
2023-04-16T00:52:14.569Z,6.6
2023-04-16T00:57:58.569Z,6
2023-04-16T01:03:47.666Z,7.4
2023-04-16T01:09:31.787Z,6.3
2023-04-16T01:15:16.097Z,7.2
2023-04-16T01:21:00.182Z,6.6
2023-04-16T01:26:44.284Z,4.9
2023-04-16T01:32:28.481Z,6.1
2023-04-16T01:38:12.742Z,6.4
2023-04-16T01:43:56.830Z,5.6
2023-04-16T01:49:40.990Z,5.5
2023-04-16T01:55:24.954Z,4.2
2023-04-16T02:01:10.005Z,5.7
2023-04-16T02:06:54.865Z,6.5
2023-04-16T02:12:38.968Z,8.2
2023-04-16T02:18:23.068Z,6.1
2023-04-16T02:24:07.660Z,4.4
2023-04-16T02:29:51.807Z,5
2023-04-16T02:35:36.080Z,5.5
2023-04-16T02:41:20.062Z,5.5
2023-04-16T02:47:04.216Z,5.2
2023-04-16T02:52:48.202Z,6.2
2023-04-16T02:58:32.166Z,4.5
2023-04-16T03:04:16.369Z,4.6
2023-04-16T03:10:00.629Z,5.2
2023-04-16T03:15:50.964Z,3.5
2023-04-16T03:21:35.009Z,5.5
2023-04-16T03:27:18.817Z,4.5
2023-04-16T03:33:03.206Z,4.4
2023-04-16T03:38:47.722Z,4.1
2023-04-16T03:44:31.620Z,4.8
2023-04-16T03:50:15.897Z,3.6
2023-04-16T03:55:59.933Z,5.5
2023-04-16T04:01:44.006Z,6.6
2023-04-16T04:07:28.343Z,5.2
2023-04-16T04:13:12.541Z,3.9
2023-04-16T04:18:56.959Z,3.4
2023-04-16T04:24:41.002Z,4.7
2023-04-16T04:30:25.162Z,3.7
2023-04-16T04:36:10.635Z,4.2
2023-04-16T04:41:54.633Z,4.1
2023-04-16T04:47:38.863Z,4.5
2023-04-16T04:53:22.841Z,4.8
2023-04-16T04:59:06.966Z,5.9
2023-04-16T05:04:51.115Z,3
2023-04-16T05:10:35.134Z,4.8
2023-04-16T05:16:19.482Z,2.9
2023-04-16T05:22:03.430Z,5.4
2023-04-16T05:27:47.748Z,5
2023-04-16T05:33:31.899Z,2.4
2023-04-16T05:39:15.980Z,2.9
2023-04-16T05:44:59.996Z,3.7
2023-04-16T05:50:44.064Z,3.8
2023-04-16T05:56:27.988Z,2.9
2023-04-16T06:02:13.506Z,4.2
2023-04-16T06:07:57.746Z,3.1
2023-04-16T06:13:42.676Z,6.1
2023-04-16T06:19:26.614Z,3.2
2023-04-16T06:25:11.091Z,4.2
2023-04-16T06:30:55.086Z,4.4
2023-04-16T06:36:39.032Z,6.5
2023-04-16T06:42:23.170Z,4.4
2023-04-16T06:48:07.986Z,4.1
2023-04-16T06:53:51.968Z,4.4
2023-04-16T06:59:36.968Z,4.7
2023-04-16T07:05:21.356Z,3.3
2023-04-16T07:11:06.439Z,4.4
2023-04-16T07:16:50.661Z,3.4
2023-04-16T07:22:35.673Z,3.7
2023-04-16T07:28:19.448Z,3.2
2023-04-16T07:34:03.508Z,5.5
2023-04-16T07:39:47.777Z,4.7
2023-04-16T07:45:31.845Z,5.6
2023-04-16T07:51:15.914Z,6.6
2023-04-16T07:56:59.995Z,3.5
2023-04-16T08:02:44.661Z,3.7
2023-04-16T08:08:30.945Z,5.3
2023-04-16T08:14:15.067Z,4.2
2023-04-16T08:19:59.211Z,5
2023-04-16T08:25:43.415Z,4.1
2023-04-16T08:31:27.942Z,4.3
2023-04-16T08:37:12.116Z,4.5
2023-04-16T08:42:56.946Z,4.9
2023-04-16T08:48:41.920Z,4.4
2023-04-16T08:54:31.629Z,6.8
2023-04-16T09:00:19.143Z,4.9
2023-04-16T09:06:06.292Z,5.6
2023-04-16T09:11:53.450Z,7.1
2023-04-16T09:17:38.147Z,6
2023-04-16T09:23:22.262Z,5.5
2023-04-16T09:29:06.396Z,5.9
2023-04-16T09:35:03.842Z,7.3
2023-04-16T09:40:49.050Z,7.3
2023-04-16T09:46:35.459Z,7.8
2023-04-16T09:52:21.166Z,7.2
2023-04-16T09:58:08.298Z,7.4
2023-04-16T10:03:53.747Z,7.4
2023-04-16T10:09:40.377Z,8.3
2023-04-16T10:15:24.738Z,10.1
2023-04-16T10:21:08.750Z,9.2
2023-04-16T10:26:55.005Z,10.2
2023-04-16T10:32:39.920Z,9.3
2023-04-16T10:38:32.945Z,9.6
2023-04-16T10:44:17.032Z,8.7
2023-04-16T10:50:01.313Z,9
2023-04-16T10:55:50.703Z,10
2023-04-16T11:01:39.096Z,9.9
2023-04-16T11:07:24.910Z,9.1
2023-04-16T11:13:09.842Z,9.4
2023-04-16T11:18:58.153Z,7.3
2023-04-16T11:24:42.415Z,9.5
2023-04-16T11:30:31.462Z,8.4
2023-04-16T11:36:15.692Z,6.9
2023-04-16T11:42:00.082Z,7.4
2023-04-16T11:47:50.367Z,6.6
2023-04-16T11:53:34.399Z,7.6
2023-04-16T11:59:19.400Z,7.3
2023-04-16T12:05:03.668Z,7
2023-04-16T12:10:59.466Z,9.3
2023-04-16T12:16:43.862Z,8.4
2023-04-16T12:22:38.205Z,8.1
2023-04-16T12:28:26.935Z,8.6
2023-04-16T12:34:11.106Z,8.7
2023-04-16T12:39:55.151Z,9
2023-04-16T12:45:39.712Z,7.8
2023-04-16T12:51:23.847Z,8
2023-04-16T12:57:07.975Z,8.1
2023-04-16T13:02:53.666Z,8.6
2023-04-16T13:08:37.782Z,9.4
2023-04-16T13:14:22.780Z,10.4
2023-04-16T13:20:06.983Z,10.9
2023-04-16T13:25:52.961Z,8.8
2023-04-16T13:31:37.126Z,10.7
2023-04-16T13:37:21.380Z,10.3
2023-04-16T13:43:08.697Z,11.4
2023-04-16T13:48:52.806Z,11.2
2023-04-16T13:54:37.077Z,10.9
2023-04-16T14:00:21.565Z,10.3
2023-04-16T14:06:06.022Z,10.8
2023-04-16T14:11:50.133Z,11.1
2023-04-16T14:17:34.477Z,11.3
2023-04-16T14:23:18.475Z,12.1
2023-04-16T14:29:02.607Z,11
2023-04-16T14:34:46.586Z,12.8
2023-04-16T14:40:31.834Z,11.8
2023-04-16T14:46:16.088Z,13.5
2023-04-16T14:52:00.120Z,10.2
2023-04-16T14:57:44.121Z,12
2023-04-16T15:03:29.367Z,12.6
2023-04-16T15:09:14.200Z,12.7
2023-04-16T15:14:58.290Z,12.1
2023-04-16T15:20:42.292Z,11.6
2023-04-16T15:26:26.217Z,14
2023-04-16T15:32:10.401Z,11.9
2023-04-16T15:37:54.548Z,12.2
2023-04-16T15:43:38.562Z,11.8
2023-04-16T15:49:22.537Z,11.1
2023-04-16T15:55:07.726Z,12.6
2023-04-16T16:00:52.735Z,12
2023-04-16T16:06:37.186Z,11.4
2023-04-16T16:12:21.226Z,12.9
2023-04-16T16:18:05.451Z,13.1
2023-04-16T16:23:49.545Z,11.6
2023-04-16T16:29:33.524Z,12.2
2023-04-16T16:35:17.492Z,14
2023-04-16T16:41:01.663Z,12.7
2023-04-16T16:46:49.325Z,15.1
2023-04-16T16:52:33.306Z,12.1
2023-04-16T16:58:17.230Z,14.2
2023-04-16T17:04:02.156Z,13.3
2023-04-16T17:09:46.158Z,15
2023-04-16T17:15:30.427Z,13.7
2023-04-16T17:21:17.011Z,16.3
2023-04-16T17:27:01.155Z,16.3
2023-04-16T17:32:45.531Z,14.3
2023-04-16T17:38:29.527Z,14.4
2023-04-16T17:44:15.961Z,14.1
2023-04-16T17:50:00.234Z,13.7
2023-04-16T17:55:44.186Z,14.1
2023-04-16T18:01:29.540Z,13.5
2023-04-16T18:07:15.480Z,13.1
2023-04-16T18:12:59.539Z,13.6
2023-04-16T18:18:44.646Z,13.6
2023-04-16T18:24:28.767Z,11.9
2023-04-16T18:30:28.190Z,14.3
2023-04-16T18:36:12.420Z,54.8
2023-04-16T18:41:56.347Z,35.4
2023-04-16T18:47:40.718Z,34.2
2023-04-16T18:53:24.876Z,28.1
2023-04-16T18:59:11.838Z,24.7
2023-04-16T19:04:56.104Z,23.9
2023-04-16T19:10:40.030Z,23.8
2023-04-16T19:16:24.358Z,21.3
2023-04-16T19:22:08.400Z,20.1
2023-04-16T19:27:52.798Z,21.5
2023-04-16T19:33:36.675Z,21.2
2023-04-16T19:39:20.753Z,20.6
2023-04-16T19:45:04.893Z,19.2
2023-04-16T19:50:49.844Z,18.6
2023-04-16T19:56:33.690Z,20
2023-04-16T20:02:20.983Z,21.3
2023-04-16T20:08:05.215Z,19.2
2023-04-16T20:13:49.299Z,20.5
2023-04-16T20:19:33.347Z,21.6
2023-04-16T20:25:17.428Z,20.3
2023-04-16T20:31:01.876Z,18.7
2023-04-16T20:36:45.882Z,19.5
2023-04-16T20:42:29.897Z,20.6
2023-04-16T20:48:14.215Z,22.9
2023-04-16T20:53:58.090Z,21.5
2023-04-16T20:59:42.208Z,21.8
2023-04-16T21:05:26.171Z,23.1
2023-04-16T21:11:11.075Z,23.1
2023-04-16T21:16:55.126Z,21.3
2023-04-16T21:22:39.218Z,23.1
2023-04-16T21:28:23.010Z,21.4
2023-04-16T21:34:07.125Z,21.6
2023-04-16T21:39:51.150Z,23.2
2023-04-16T21:45:35.283Z,25.2
2023-04-16T21:51:19.428Z,23.7
2023-04-16T21:57:03.418Z,25.3
2023-04-16T22:02:48.286Z,26.9
2023-04-16T22:08:32.914Z,24.1
2023-04-16T22:14:16.876Z,24.9
2023-04-16T22:20:00.855Z,25.1
2023-04-16T22:25:44.859Z,23.8
2023-04-16T22:31:29.101Z,24.9
2023-04-16T22:37:13.162Z,26.3
2023-04-16T22:42:57.031Z,26.2
2023-04-16T22:48:41.061Z,26.1
2023-04-16T22:54:25.030Z,24.1
2023-04-16T23:00:09.892Z,24.9
2023-04-16T23:05:53.861Z,24
2023-04-16T23:11:38.030Z,23.5
2023-04-16T23:17:22.012Z,23.9
2023-04-16T23:23:06.256Z,23.5
2023-04-16T23:28:52.160Z,23.3
2023-04-16T23:34:36.446Z,23.1
2023-04-16T23:40:21.672Z,23.2
2023-04-16T23:46:06.447Z,23
2023-04-16T23:51:50.508Z,22.9
2023-04-16T23:57:35.510Z,24
